Time;durP1;ratioP1;P1;durP2;ratioP2;P2;SDS_P1;SDS_P2;PMS_P1;PMS_P2;Temp;Humidity;BMP_temperature;BMP_pressure;BME280_temperature;BME280_humidity;BME280_pressure;Samples;Min_cycle;Max_cycle;Signal;HPM_P1;HPM_P2
2021/04/12 00:01:46;;;;;;;4.83;4.00;;;;;;;4.82;100.00;152601.56;5034876;28;20806;-86
2021/04/12 00:04:27;;;;;;;5.27;4.33;;;;;;;4.71;100.00;152571.97;4999786;28;20428;-86
2021/04/12 00:07:07;;;;;;;5.70;4.23;;;;;;;4.52;100.00;152524.28;5016956;28;20468;-86
2021/04/12 00:09:46;;;;;;;5.03;3.87;;;;;;;4.52;100.00;152523.00;5052009;28;20439;-86
2021/04/12 00:12:27;;;;;;;4.43;3.63;;;;;;;4.46;100.00;152507.53;5016217;28;20817;-85
2021/04/12 00:15:07;;;;;;;4.80;3.87;;;;;;;4.28;100.00;152462.47;5032444;28;20436;-85
2021/04/12 00:17:45;;;;;;;4.13;3.40;;;;;;;4.34;100.00;152477.94;5006489;28;20444;-85
2021/04/12 00:20:26;;;;;;;4.47;4.00;;;;;;;4.33;100.00;152475.34;5014923;28;20445;-85
2021/04/12 00:23:06;;;;;;;5.47;4.00;;;;;;;4.31;100.00;152471.44;5024799;28;20848;-86
2021/04/12 00:25:48;;;;;;;4.07;3.67;;;;;;;4.12;100.00;152421.25;5034375;28;20451;-86
2021/04/12 00:28:30;;;;;;;5.00;3.77;;;;;;;4.11;100.00;152419.94;5012432;28;20830;-86
2021/04/12 00:31:09;;;;;;;4.93;4.10;;;;;;;4.16;100.00;152431.53;5014854;28;20950;-86
2021/04/12 00:33:47;;;;;;;4.10;3.27;;;;;;;4.26;100.00;152457.31;5015363;28;20440;-85
2021/04/12 00:36:26;;;;;;;3.93;3.53;;;;;;;4.18;100.00;152437.97;5033881;28;20447;-85
2021/04/12 00:39:04;;;;;;;5.60;4.47;;;;;;;4.17;100.00;152434.13;5096793;27;20786;-86
2021/04/12 00:41:52;;;;;;;5.80;4.60;;;;;;;4.04;100.00;152400.63;5117945;27;20435;-85
2021/04/12 00:44:34;;;;;;;4.90;3.97;;;;;;;3.89;100.00;152362.00;5018443;28;20546;-85
2021/04/12 00:47:19;;;;;;;4.50;3.80;;;;;;;3.93;100.00;152372.28;5033434;28;20468;-86
2021/04/12 00:50:08;;;;;;;4.90;3.97;;;;;;;3.92;100.00;152369.75;5032199;28;20862;-85
2021/04/12 00:52:56;;;;;;;4.23;3.83;;;;;;;3.78;100.00;152333.69;5051868;27;20779;-85
2021/04/12 00:55:35;;;;;;;4.97;4.13;;;;;;;3.81;100.00;152342.72;5018861;28;20451;-87
2021/04/12 00:58:24;;;;;;;4.57;3.53;;;;;;;3.86;100.00;152354.28;5030141;28;20435;-86
2021/04/12 01:01:09;;;;;;;5.33;4.43;;;;;;;3.89;100.00;152362.00;5049005;28;20549;-86
2021/04/12 01:03:58;;;;;;;4.50;3.43;;;;;;;3.85;100.00;152351.69;5064523;28;20431;-86
2021/04/12 01:06:51;;;;;;;4.83;4.23;;;;;;;3.74;100.00;152323.34;5043211;28;20456;-86
2021/04/12 01:09:56;;;;;;;4.87;4.23;;;;;;;3.63;100.00;152297.63;5042028;28;20440;-86
2021/04/12 01:12:58;;;;;;;6.47;4.53;;;;;;;3.67;100.00;152307.94;5080029;27;20786;-86
2021/04/12 01:15:48;;;;;;;5.40;4.23;;;;;;;3.63;100.00;152297.63;5117866;27;20772;-86
2021/04/12 01:18:51;;;;;;;4.87;3.90;;;;;;;3.75;100.00;152325.94;5047611;28;20452;-87
2021/04/12 01:22:01;;;;;;;5.50;4.70;;;;;;;3.60;100.00;152288.66;5003279;28;20486;-86
2021/04/12 01:25:16;;;;;;;5.97;4.60;;;;;;;3.63;100.00;152297.63;5018886;28;20425;-87
2021/04/12 01:28:25;;;;;;;6.40;4.90;;;;;;;3.54;100.00;152274.47;5043424;28;20467;-86
2021/04/12 01:31:41;;;;;;;6.57;5.30;;;;;;;3.53;100.00;152270.59;5014661;28;21255;-86
2021/04/12 01:34:53;;;;;;;5.47;4.40;;;;;;;3.61;100.00;152292.47;5016484;28;20534;-86
2021/04/12 01:37:39;;;;;;;5.20;3.90;;;;;;;3.45;100.00;152250.00;5003572;28;20468;-86
2021/04/12 01:40:27;;;;;;;5.13;4.63;;;;;;;3.47;100.00;152256.44;5051313;28;20909;-86
2021/04/12 01:43:06;;;;;;;6.23;5.07;;;;;;;3.31;100.00;152215.22;5022897;28;20918;-85
2021/04/12 01:45:47;;;;;;;6.57;4.53;;;;;;;3.21;100.00;152189.50;5012170;28;20487;-85
2021/04/12 01:48:40;;;;;;;6.47;5.17;;;;;;;3.09;100.00;152158.66;5033585;28;20502;-85
2021/04/12 01:51:24;;;;;;;7.80;5.73;;;;;;;3.12;100.00;152166.38;5013628;28;20548;-86
2021/04/12 01:54:10;;;;;;;6.77;5.10;;;;;;;3.14;100.00;152171.50;5005561;28;20436;-86
2021/04/12 01:56:54;;;;;;;7.63;4.97;;;;;;;3.15;100.00;152172.81;5028984;28;20465;-86
2021/04/12 01:59:40;;;;;;;5.93;5.27;;;;;;;3.11;100.00;152163.78;5012725;28;20479;-86
2021/04/12 02:02:26;;;;;;;5.90;4.30;;;;;;;3.07;100.00;152153.50;5020926;28;20446;-86
2021/04/12 02:05:26;;;;;;;6.20;4.70;;;;;;;3.06;100.00;152150.91;5052523;28;20438;-86
2021/04/12 02:08:15;;;;;;;5.73;4.77;;;;;;;3.19;100.00;152183.06;5028286;28;20439;-86
2021/04/12 02:11:18;;;;;;;7.00;4.50;;;;;;;3.17;100.00;152177.94;5033113;28;20451;-86
2021/04/12 02:14:18;;;;;;;5.63;3.97;;;;;;;3.16;100.00;152176.66;5032616;28;20542;-87
2021/04/12 02:16:58;;;;;;;5.57;4.53;;;;;;;3.23;100.00;152193.41;5024036;28;20593;-87
2021/04/12 02:19:46;;;;;;;5.77;4.47;;;;;;;3.23;100.00;152194.63;5017310;28;20436;-86
2021/04/12 02:22:41;;;;;;;6.43;5.20;;;;;;;3.13;100.00;152168.91;5032345;28;20436;-86
2021/04/12 02:25:21;;;;;;;5.70;4.40;;;;;;;3.16;100.00;152175.34;5012678;28;20456;-86
2021/04/12 02:28:07;;;;;;;7.30;5.60;;;;;;;3.22;100.00;152190.81;5016666;28;20525;-87
2021/04/12 02:30:48;;;;;;;5.33;4.40;;;;;;;3.07;100.00;152154.75;5037260;28;20451;-87
2021/04/12 02:33:30;;;;;;;7.33;5.30;;;;;;;3.12;100.00;152166.38;5025812;28;20466;-87
2021/04/12 02:36:11;;;;;;;6.37;4.80;;;;;;;3.09;100.00;152158.66;5032390;28;20440;-86
2021/04/12 02:38:54;;;;;;;6.50;4.73;;;;;;;3.01;100.00;152138.06;5015430;28;20556;-86
2021/04/12 02:41:41;;;;;;;5.77;5.17;;;;;;;3.03;100.00;152143.19;5013493;28;20840;-86
2021/04/12 02:44:35;;;;;;;6.50;5.27;;;;;;;2.86;100.00;152100.72;5027028;28;20427;-86
2021/04/12 02:47:19;;;;;;;6.07;5.23;;;;;;;2.91;100.00;152112.34;5033238;28;20457;-86
2021/04/12 02:50:01;;;;;;;7.33;5.40;;;;;;;2.92;100.00;152114.88;5035914;28;20894;-86
2021/04/12 02:52:42;;;;;;;6.80;5.37;;;;;;;2.90;100.00;152109.75;5022756;28;20945;-86
2021/04/12 02:55:33;;;;;;;8.40;4.73;;;;;;;2.91;100.00;152112.34;5036032;28;20447;-86
2021/04/12 02:58:36;;;;;;;8.70;6.70;;;;;;;2.87;100.00;152102.00;5041728;28;20468;-86
2021/04/12 03:01:27;;;;;;;6.73;4.57;;;;;;;2.91;100.00;152113.56;5005675;28;20545;-86
2021/04/12 03:04:10;;;;;;;6.73;5.70;;;;;;;2.94;100.00;152120.00;5035402;28;20440;-85
2021/04/12 03:07:07;;;;;;;9.83;6.47;;;;;;;2.96;100.00;152126.50;5035170;28;20546;-86
2021/04/12 03:09:49;;;;;;;8.70;5.90;;;;;;;2.91;100.00;152113.56;5031908;28;20448;-86
2021/04/12 03:12:59;;;;;;;8.60;6.50;;;;;;;2.87;100.00;152103.31;5026560;28;20447;-85
2021/04/12 03:16:16;;;;;;;7.40;5.10;;;;;;;2.85;100.00;152096.88;5035173;28;20453;-86
2021/04/12 03:19:23;;;;;;;7.63;5.50;;;;;;;2.87;100.00;152102.00;5001676;28;20491;-86
2021/04/12 03:22:38;;;;;;;8.27;5.90;;;;;;;2.91;100.00;152112.34;5001918;28;20809;-85
2021/04/12 03:25:33;;;;;;;7.57;5.60;;;;;;;2.81;100.00;152086.56;5036541;28;20440;-85
2021/04/12 03:28:22;;;;;;;7.20;5.33;;;;;;;2.81;100.00;152087.84;5008492;28;20516;-85
2021/04/12 03:31:22;;;;;;;7.20;5.17;;;;;;;2.77;100.00;152077.59;5022267;28;20810;-85
2021/04/12 03:34:10;;;;;;;9.20;5.73;;;;;;;2.67;100.00;152050.56;5023570;28;20444;-85
2021/04/12 03:37:12;;;;;;;7.90;5.40;;;;;;;2.72;100.00;152064.75;5031247;28;20522;-85
2021/04/12 03:39:51;;;;;;;8.07;5.37;;;;;;;2.60;100.00;152032.53;5023084;28;20491;-86
2021/04/12 03:42:51;;;;;;;5.70;4.90;;;;;;;2.63;100.00;152041.56;5050613;28;20451;-86
2021/04/12 03:45:35;;;;;;;7.80;5.80;;;;;;;2.66;100.00;152048.00;5014836;28;20445;-86
2021/04/12 03:48:40;;;;;;;8.57;6.00;;;;;;;2.68;100.00;152054.41;5006657;28;21104;-85
2021/04/12 03:51:40;;;;;;;8.33;5.50;;;;;;;2.62;100.00;152038.97;5024424;28;20444;-86
2021/04/12 03:54:25;;;;;;;7.27;5.67;;;;;;;2.68;100.00;152053.13;5015648;28;20449;-86
2021/04/12 03:57:43;;;;;;;9.05;6.07;;;;;;;2.61;100.00;152036.44;4999466;28;20443;-85
2021/04/12 04:00:36;;;;;;;7.40;6.10;;;;;;;2.61;100.00;152035.13;5033126;28;20240;-86
2021/04/12 04:03:41;;;;;;;8.73;6.17;;;;;;;2.55;100.00;152020.97;5034749;28;20210;-85
2021/04/12 04:06:33;;;;;;;7.07;6.03;;;;;;;2.56;100.00;152022.28;5041828;28;20452;-86
2021/04/12 04:09:26;;;;;;;7.70;5.53;;;;;;;2.60;100.00;152033.84;5016292;28;20437;-85
2021/04/12 04:12:30;;;;;;;6.40;5.43;;;;;;;2.61;100.00;152036.44;5035658;28;20455;-86
2021/04/12 04:15:24;;;;;;;8.17;6.00;;;;;;;2.60;100.00;152033.84;5016130;28;20439;-86
2021/04/12 04:18:12;;;;;;;8.27;5.83;;;;;;;2.51;100.00;152009.41;5000469;28;20480;-85
2021/04/12 04:20:55;;;;;;;8.63;4.97;;;;;;;2.57;100.00;152024.88;5011891;28;20436;-85
2021/04/12 04:23:54;;;;;;;7.73;5.30;;;;;;;2.62;100.00;152038.97;5014731;28;20453;-85
2021/04/12 04:26:50;;;;;;;8.87;5.90;;;;;;;2.68;100.00;152053.13;5031901;28;20447;-85
2021/04/12 04:29:54;;;;;;;7.87;6.07;;;;;;;2.54;100.00;152017.16;5033466;28;21005;-85
2021/04/12 04:32:45;;;;;;;9.50;6.43;;;;;;;2.47;100.00;152001.69;5018829;28;20447;-85
2021/04/12 04:35:31;;;;;;;8.20;6.70;;;;;;;2.55;100.00;152019.69;5033986;28;20428;-85
2021/04/12 04:38:38;;;;;;;9.37;5.77;;;;;;;2.50;100.00;152008.13;5018385;28;20509;-85
2021/04/12 04:41:22;;;;;;;8.97;6.73;;;;;;;2.56;100.00;152022.28;4998305;28;20464;-85
2021/04/12 04:44:17;;;;;;;9.33;7.17;;;;;;;2.59;100.00;152030.00;5025352;28;20451;-85
2021/04/12 04:47:03;;;;;;;11.07;7.37;;;;;;;2.62;100.00;152037.72;5051166;28;20436;-85
2021/04/12 04:49:46;;;;;;;7.27;6.17;;;;;;;2.57;100.00;152024.88;5034078;28;20443;-84
2021/04/12 04:52:31;;;;;;;9.17;6.90;;;;;;;2.51;100.00;152009.41;5018548;28;20478;-84
2021/04/12 04:55:27;;;;;;;9.83;6.50;;;;;;;2.47;100.00;152001.69;5030313;28;20458;-84
2021/04/12 04:58:23;;;;;;;9.37;6.30;;;;;;;2.42;100.00;151988.84;5030839;28;20841;-83
2021/04/12 05:01:09;;;;;;;9.97;7.10;;;;;;;2.44;100.00;151993.97;5008166;28;20440;-84
2021/04/12 05:04:08;;;;;;;9.97;6.60;;;;;;;2.44;100.00;151992.69;5028644;28;20543;-85
2021/04/12 05:07:10;;;;;;;5.93;5.30;;;;;;;2.45;100.00;151996.56;5030321;28;20447;-85
2021/04/12 05:10:06;;;;;;;6.30;5.03;;;;;;;2.34;100.00;151968.25;5012396;28;20561;-84
2021/04/12 05:12:52;;;;;;;6.57;4.47;;;;;;;2.37;100.00;151976.00;5020449;28;20488;-85
2021/04/12 05:16:10;;;;;;;6.70;4.80;;;;;;;2.34;100.00;151968.25;5022272;28;20539;-85
2021/04/12 05:19:02;;;;;;;6.73;5.27;;;;;;;2.39;100.00;151979.81;5021279;28;20516;-85
2021/04/12 05:21:59;;;;;;;6.27;4.77;;;;;;;2.19;100.00;151929.72;5018217;28;20849;-85
2021/04/12 05:24:59;;;;;;;7.93;5.77;;;;;;;2.19;100.00;151928.41;5031841;28;20471;-85
2021/04/12 05:27:44;;;;;;;6.10;4.20;;;;;;;2.22;100.00;151937.44;4998694;28;20445;-86
2021/04/12 05:30:40;;;;;;;7.30;5.47;;;;;;;2.13;100.00;151914.25;5013861;28;20441;-87
2021/04/12 05:33:27;;;;;;;8.57;6.20;;;;;;;2.17;100.00;151924.53;5021816;28;20467;-87
2021/04/12 05:36:34;;;;;;;6.93;5.30;;;;;;;2.18;100.00;151927.13;5018047;28;20551;-86
2021/04/12 05:39:19;;;;;;;8.87;6.53;;;;;;;2.08;100.00;151901.41;5038722;28;20574;-86
2021/04/12 05:42:25;;;;;;;7.87;6.63;;;;;;;2.12;100.00;151910.44;5047276;28;20440;-86
2021/04/12 05:45:08;;;;;;;8.23;6.30;;;;;;;2.12;100.00;151910.44;5028642;28;20852;-85
2021/04/12 05:48:05;;;;;;;9.50;6.77;;;;;;;2.14;100.00;151915.56;5028590;28;20428;-86
2021/04/12 05:50:58;;;;;;;9.00;6.30;;;;;;;2.15;100.00;151918.09;5029963;28;20440;-86
2021/04/12 05:53:47;;;;;;;8.53;6.87;;;;;;;2.10;100.00;151906.53;5021524;28;20436;-87
2021/04/12 05:56:32;;;;;;;10.50;7.70;;;;;;;2.19;100.00;151928.41;5013464;28;20465;-86
2021/04/12 05:59:40;;;;;;;10.30;6.97;;;;;;;2.19;100.00;151929.72;5013579;28;20514;-87
2021/04/12 06:02:24;;;;;;;10.80;6.90;;;;;;;2.24;100.00;151942.56;5017482;28;20494;-87
2021/04/12 06:05:15;;;;;;;9.80;6.20;;;;;;;2.20;100.00;151932.25;5015800;28;20491;-85
2021/04/12 06:08:12;;;;;;;11.57;7.30;;;;;;;2.21;100.00;151934.84;5019957;28;20532;-86
2021/04/12 06:10:58;;;;;;;9.57;6.90;;;;;;;2.26;100.00;151947.69;5014460;28;20511;-86
2021/04/12 06:14:11;;;;;;;10.20;8.20;;;;;;;2.31;100.00;151960.53;4996030;28;20444;-86
2021/04/12 06:17:04;;;;;;;10.60;8.23;;;;;;;2.30;100.00;151957.94;5012401;28;20448;-85
2021/04/12 06:19:59;;;;;;;11.60;8.00;;;;;;;2.31;100.00;151960.53;5027156;28;20977;-86
2021/04/12 06:22:49;;;;;;;11.63;7.70;;;;;;;2.38;100.00;151978.53;5034029;28;20451;-86
2021/04/12 06:25:42;;;;;;;12.80;7.85;;;;;;;2.39;100.00;151979.81;5028219;28;20447;-85
2021/04/12 06:28:36;;;;;;;11.53;8.13;;;;;;;2.46;100.00;151999.09;5025678;28;20199;-86
2021/04/12 06:31:57;;;;;;;12.00;8.53;;;;;;;2.45;100.00;151996.56;5012000;28;20428;-86
2021/04/12 06:34:59;;;;;;;10.93;7.73;;;;;;;2.51;100.00;152009.41;5037125;28;20466;-86
2021/04/12 06:37:57;;;;;;;11.50;7.90;;;;;;;2.54;100.00;152017.16;5030457;28;20471;-86
2021/04/12 06:41:08;;;;;;;11.23;8.30;;;;;;;2.64;100.00;152042.84;5037004;28;20929;-85
2021/04/12 06:44:01;;;;;;;11.30;7.90;;;;;;;2.67;100.00;152050.56;5037880;28;20444;-85
2021/04/12 06:47:19;;;;;;;13.10;10.20;;;;;;;2.69;100.00;152055.72;5017394;28;20829;-85
2021/04/12 06:50:33;;;;;;;10.07;7.20;;;;;;;2.78;100.00;152078.88;5063890;28;20390;-85
2021/04/12 06:53:46;;;;;;;11.33;8.47;;;;;;;2.82;100.00;152090.44;5065730;28;20201;-85
2021/04/12 06:56:46;;;;;;;11.37;7.87;;;;;;;2.80;100.00;152084.03;5063660;28;20434;-85
2021/04/12 07:00:01;;;;;;;13.60;7.33;;;;;;;2.87;100.00;152103.31;5041366;28;20475;-85
2021/04/12 07:03:04;;;;;;;11.50;8.47;;;;;;;2.91;100.00;152112.34;5054254;28;20451;-86
2021/04/12 07:06:06;;;;;;;10.50;7.53;;;;;;;2.97;100.00;152127.75;5059282;28;20423;-88
2021/04/12 07:09:16;;;;;;;11.57;8.27;;;;;;;2.93;100.00;152118.75;5054376;28;20975;-85
2021/04/12 07:12:10;;;;;;;12.27;8.10;;;;;;;2.90;100.00;152111.03;5035890;28;20553;-85
2021/04/12 07:15:11;;;;;;;14.30;8.47;;;;;;;2.97;100.00;152127.75;5036198;28;20796;-85
2021/04/12 07:18:13;;;;;;;10.00;8.30;;;;;;;3.07;100.00;152153.50;5054607;28;20474;-88
2021/04/12 07:21:25;;;;;;;10.93;7.80;;;;;;;3.10;100.00;152159.94;5025570;28;20442;-88
2021/04/12 07:24:46;;;;;;;13.90;9.80;;;;;;;3.08;100.00;152156.06;5032469;28;20444;-88
2021/04/12 07:27:47;;;;;;;12.00;9.37;;;;;;;3.09;100.00;152158.66;5015393;28;20805;-89
2021/04/12 07:30:43;;;;;;;13.30;9.50;;;;;;;3.05;100.00;152148.31;5011553;28;20447;-89
2021/04/12 07:33:42;;;;;;;11.80;8.63;;;;;;;3.10;100.00;152161.19;5011512;28;20888;-88
2021/04/12 07:36:34;;;;;;;12.17;9.77;;;;;;;3.08;100.00;152156.06;5016212;28;20437;-87
2021/04/12 07:39:49;;;;;;;14.10;10.80;;;;;;;3.04;100.00;152147.03;5001281;28;20483;-88
2021/04/12 07:43:16;;;;;;;15.97;11.03;;;;;;;3.12;100.00;152165.06;5010987;28;20456;-88
2021/04/12 07:46:16;;;;;;;15.30;10.37;;;;;;;3.12;100.00;152166.38;5021430;28;20455;-88
2021/04/12 07:49:22;;;;;;;15.67;10.00;;;;;;;3.17;100.00;152179.22;5021912;28;20432;-88
2021/04/12 07:52:30;;;;;;;15.63;10.90;;;;;;;3.19;100.00;152183.06;5035739;28;20802;-88
2021/04/12 07:55:27;;;;;;;13.73;11.00;;;;;;;3.26;100.00;152202.38;5034062;28;20447;-88
2021/04/12 07:58:46;;;;;;;15.80;10.87;;;;;;;3.23;100.00;152194.63;5015352;28;20472;-88
2021/04/12 08:01:44;;;;;;;14.40;10.67;;;;;;;3.29;100.00;152210.09;5012769;28;20492;-88
2021/04/12 08:04:51;;;;;;;14.40;11.23;;;;;;;3.43;100.00;152246.16;5024173;28;20445;-88
2021/04/12 08:08:02;;;;;;;15.77;11.93;;;;;;;3.40;100.00;152238.41;4999880;28;20440;-88
2021/04/12 08:11:29;;;;;;;18.37;12.37;;;;;;;3.43;100.00;152246.16;5022439;28;20490;-88
2021/04/12 08:14:29;;;;;;;17.87;12.50;;;;;;;3.43;100.00;152244.84;5035171;28;20827;-89
2021/04/12 08:17:43;;;;;;;18.93;13.80;;;;;;;3.48;100.00;152259.00;5034161;28;20447;-89
2021/04/12 08:20:42;;;;;;;14.27;10.90;;;;;;;3.59;100.00;152286.03;4998248;28;20475;-89
2021/04/12 08:24:05;;;;;;;19.00;11.80;;;;;;;3.74;100.00;152323.34;5031702;28;20451;-89
2021/04/12 08:27:10;;;;;;;18.40;12.73;;;;;;;3.74;100.00;152323.34;5050409;28;20447;-89
2021/04/12 08:30:24;;;;;;;14.53;11.27;;;;;;;3.79;100.00;152337.53;5034076;28;20448;-90
2021/04/12 08:33:35;;;;;;;18.27;13.23;;;;;;;3.77;100.00;152331.09;5034553;28;20447;-89
2021/04/12 08:36:38;;;;;;;18.40;12.80;;;;;;;3.78;100.00;152333.69;5028788;28;20439;-89
2021/04/12 08:39:46;;;;;;;17.80;13.17;;;;;;;3.91;100.00;152367.16;5037840;28;20472;-89
2021/04/12 08:42:54;;;;;;;16.33;12.67;;;;;;;3.89;100.00;152363.25;5030773;28;20926;-88
2021/04/12 08:46:03;;;;;;;19.83;13.60;;;;;;;3.94;100.00;152374.88;5038202;27;20526;-89
2021/04/12 08:48:49;;;;;;;18.60;12.30;;;;;;;3.95;100.00;152377.44;5033912;28;20529;-89
2021/04/12 08:52:00;;;;;;;17.40;12.33;;;;;;;4.01;100.00;152392.91;5116636;27;20851;-89
2021/04/12 08:55:09;;;;;;;16.30;11.97;;;;;;;4.01;100.00;152394.19;5032574;28;20457;-90
2021/04/12 08:58:34;;;;;;;15.63;11.90;;;;;;;4.02;100.00;152395.50;5050077;28;20504;-90
2021/04/12 09:01:30;;;;;;;18.63;12.57;;;;;;;4.03;100.00;152398.03;4943250;28;20462;-89
2021/04/12 09:04:23;;;;;;;16.23;12.17;;;;;;;4.08;100.00;152410.91;4936764;29;20961;-90
2021/04/12 09:07:24;;;;;;;15.97;12.10;;;;;;;4.07;100.00;152408.38;5042200;28;20451;-89
2021/04/12 09:10:23;;;;;;;14.30;11.03;;;;;;;4.15;100.00;152430.28;5024110;28;20885;-90
2021/04/12 09:13:33;;;;;;;17.40;12.47;;;;;;;4.20;99.56;152441.84;5051924;28;20443;-89
2021/04/12 09:16:26;;;;;;;12.73;10.33;;;;;;;4.09;98.97;152414.81;5018539;28;20482;-89
2021/04/12 09:19:36;;;;;;;15.63;11.03;;;;;;;4.08;96.88;152410.91;5033767;28;20464;-89
2021/04/12 09:22:51;;;;;;;14.33;10.30;;;;;;;4.00;96.96;152390.31;5014399;28;20456;-89
2021/04/12 09:25:50;;;;;;;15.73;11.30;;;;;;;4.03;95.15;152398.03;5033445;28;20501;-88
2021/04/12 09:28:54;;;;;;;14.27;11.47;;;;;;;4.13;99.96;152425.09;5046278;28;20480;-90
2021/04/12 09:31:44;;;;;;;14.50;10.83;;;;;;;4.00;96.96;152391.59;5002220;28;20831;-90
2021/04/12 09:34:43;;;;;;;11.40;9.10;;;;;;;4.13;97.83;152425.09;5023534;28;20447;-89
2021/04/12 09:37:52;;;;;;;13.10;9.30;;;;;;;4.19;96.23;152440.56;5038332;28;20432;-89
2021/04/12 09:41:12;;;;;;;15.70;10.17;;;;;;;4.22;98.12;152447.00;5023766;28;20513;-89
2021/04/12 09:44:23;;;;;;;13.50;10.33;;;;;;;4.30;98.37;152467.59;5033760;28;20440;-89
2021/04/12 09:47:36;;;;;;;15.00;11.20;;;;;;;4.32;98.91;152472.75;5014285;28;20475;-89
2021/04/12 09:51:00;;;;;;;13.10;9.90;;;;;;;4.47;97.72;152510.13;5033060;28;20949;-89
2021/04/12 09:54:15;;;;;;;10.53;8.83;;;;;;;4.56;95.91;152533.28;4951110;28;20456;-89
2021/04/12 09:57:18;;;;;;;12.23;9.20;;;;;;;4.59;93.75;152541.03;5013089;28;20448;-89
2021/04/12 09:59:59;;;;;;;8.90;7.80;;;;;;;4.65;95.32;152556.50;5001124;28;20470;-89
2021/04/12 10:03:10;;;;;;;15.20;9.87;;;;;;;4.69;94.90;152568.06;5051094;28;20439;-89
2021/04/12 10:06:15;;;;;;;10.43;8.93;;;;;;;4.67;95.77;152562.94;5031871;28;20564;-89
2021/04/12 10:09:12;;;;;;;11.17;9.00;;;;;;;4.70;92.85;152570.66;5033351;28;20451;-89
2021/04/12 10:11:50;;;;;;;9.73;8.50;;;;;;;4.74;91.64;152580.97;5018115;28;20447;-89
2021/04/12 10:14:28;;;;;;;10.43;8.20;;;;;;;4.79;90.99;152592.59;5019370;28;20447;-89
2021/04/12 10:17:05;;;;;;;9.87;8.80;;;;;;;4.85;88.96;152609.31;5028952;28;20442;-90
2021/04/12 10:19:46;;;;;;;10.20;8.10;;;;;;;5.01;92.78;152647.97;5029970;28;20546;-89
2021/04/12 10:22:32;;;;;;;10.60;8.03;;;;;;;4.97;89.91;152637.69;5017684;28;20447;-90
2021/04/12 10:25:13;;;;;;;8.23;7.20;;;;;;;4.97;92.30;152637.69;5018626;28;20813;-89
2021/04/12 10:27:50;;;;;;;8.23;6.80;;;;;;;4.96;87.93;152635.06;5028551;28;20448;-89
2021/04/12 10:30:28;;;;;;;9.10;6.70;;;;;;;4.91;84.51;152624.78;5039663;28;20446;-88
2021/04/12 10:33:04;;;;;;;7.10;6.40;;;;;;;4.85;85.14;152608.03;5017454;28;20441;-89
2021/04/12 10:35:45;;;;;;;8.70;7.03;;;;;;;5.03;90.79;152653.16;5016854;28;20443;-89
2021/04/12 10:38:23;;;;;;;11.27;6.10;;;;;;;4.98;84.29;152641.53;5049863;28;20459;-89
2021/04/12 10:41:08;;;;;;;6.00;5.40;;;;;;;5.15;87.63;152684.06;5032613;28;20960;-89
2021/04/12 10:43:50;;;;;;;9.60;5.67;;;;;;;5.23;89.73;152704.69;5007718;28;20814;-89
2021/04/12 10:46:29;;;;;;;7.97;6.17;;;;;;;5.06;77.52;152660.84;5012279;28;20811;-89
2021/04/12 10:49:10;;;;;;;4.83;4.43;;;;;;;5.13;83.59;152680.22;5029077;28;20447;-89
2021/04/12 10:51:52;;;;;;;5.17;4.60;;;;;;;5.26;78.87;152712.44;5017390;28;20751;-90
2021/04/12 10:54:55;;;;;;;6.43;4.97;;;;;;;5.40;76.61;152748.56;5032285;28;20440;-90
2021/04/12 10:57:34;;;;;;;4.80;4.03;;;;;;;5.48;76.08;152769.19;5008555;28;20499;-90
2021/04/12 11:00:22;;;;;;;6.03;4.23;;;;;;;5.32;72.81;152729.16;5026406;28;20475;-89
2021/04/12 11:03:44;;;;;;;5.87;4.83;;;;;;;5.50;78.60;152775.63;5014146;28;20532;-90
2021/04/12 11:07:06;;;;;;;6.03;4.60;;;;;;;5.47;74.79;152767.88;4938943;28;20487;-90
2021/04/12 11:09:54;;;;;;;6.77;4.77;;;;;;;5.58;79.97;152794.97;4994711;28;20443;-90
2021/04/12 11:12:49;;;;;;;5.87;4.30;;;;;;;5.53;76.43;152782.06;5000839;28;20448;-89
2021/04/12 11:16:01;;;;;;;5.50;4.70;;;;;;;5.66;76.40;152815.59;5016058;28;20481;-89
2021/04/12 11:18:43;;;;;;;6.30;4.80;;;;;;;5.66;78.77;152814.28;5045545;28;20479;-89
2021/04/12 11:21:23;;;;;;;5.93;4.30;;;;;;;5.71;78.88;152828.47;5035757;28;20439;-89
2021/04/12 11:24:04;;;;;;;4.57;4.17;;;;;;;5.80;84.75;152851.66;5037020;28;20448;-89
2021/04/12 11:27:16;;;;;;;5.68;4.80;;;;;;;5.78;78.94;152845.22;5035784;28;20446;-90
2021/04/12 11:30:04;;;;;;;6.20;4.40;;;;;;;5.83;75.89;152859.41;5019335;28;20203;-90
2021/04/12 11:32:48;;;;;;;5.90;4.80;;;;;;;5.96;78.83;152893.00;5015930;28;20452;-90
2021/04/12 11:35:34;;;;;;;4.70;4.20;;;;;;;5.82;72.21;152856.88;5119556;27;20530;-90
2021/04/12 11:38:11;;;;;;;4.33;3.80;;;;;;;5.96;75.43;152893.00;5021345;28;20464;-89
2021/04/12 11:40:51;;;;;;;4.50;3.97;;;;;;;5.84;68.96;152862.00;5013002;28;20451;-88
2021/04/12 11:43:28;;;;;;;4.03;3.70;;;;;;;5.85;71.10;152863.38;5032626;28;20479;-77
2021/04/12 11:46:08;;;;;;;5.53;4.43;;;;;;;5.83;70.91;152859.41;5024981;28;20440;-78
2021/04/12 11:48:50;;;;;;;4.70;4.07;;;;;;;5.74;76.82;152836.22;5026521;28;20447;-77
2021/04/12 11:51:35;;;;;;;5.20;3.87;;;;;;;5.74;79.18;152836.22;5029835;28;20203;-77
2021/04/12 11:54:13;;;;;;;5.90;3.53;;;;;;;5.64;68.29;152810.41;5022637;28;20456;-77
2021/04/12 11:56:53;;;;;;;3.60;3.30;;;;;;;5.62;67.75;152805.25;5007971;28;20855;-77
2021/04/12 11:59:47;;;;;;;3.70;3.30;;;;;;;5.89;71.09;152874.97;5027998;28;20477;-77
2021/04/12 12:02:31;;;;;;;3.67;3.37;;;;;;;6.06;81.63;152918.78;5006800;28;20490;-77
2021/04/12 12:05:09;;;;;;;3.50;3.10;;;;;;;6.15;75.35;152940.72;4990339;28;20775;-77
2021/04/12 12:07:49;;;;;;;3.20;2.90;;;;;;;6.14;66.07;152938.19;5004621;28;20456;-80
2021/04/12 12:10:36;;;;;;;3.50;3.20;;;;;;;6.22;68.33;152957.53;4988399;28;20808;-77
2021/04/12 12:13:41;;;;;;;4.20;2.93;;;;;;;6.39;68.17;153001.38;4991195;28;20463;-78
2021/04/12 12:16:23;;;;;;;5.73;3.90;;;;;;;6.44;62.69;153015.56;4991119;28;21621;-77
2021/04/12 12:19:03;;;;;;;5.63;3.10;;;;;;;6.43;66.33;153013.03;5009438;28;20468;-78
2021/04/12 12:21:46;;;;;;;3.30;3.00;;;;;;;6.21;64.74;152956.22;5009277;28;20444;-77
2021/04/12 12:24:25;;;;;;;5.03;3.53;;;;;;;6.11;61.88;152931.72;5003957;28;20974;-77
2021/04/12 12:27:05;;;;;;;5.83;3.10;;;;;;;6.05;69.54;152916.25;5035375;28;20437;-77
2021/04/12 12:29:43;;;;;;;3.78;3.25;;;;;;;6.06;73.63;152917.53;4989401;28;20606;-78
2021/04/12 12:32:30;;;;;;;3.57;3.27;;;;;;;5.96;65.85;152891.69;4991451;28;20195;-77
2021/04/12 12:35:15;;;;;;;4.23;2.97;;;;;;;5.93;65.81;152885.25;4992733;28;20485;-77
2021/04/12 12:38:13;;;;;;;3.90;3.30;;;;;;;6.00;69.88;152903.34;4987624;28;20533;-78
2021/04/12 12:40:51;;;;;;;4.50;2.80;;;;;;;6.04;67.00;152913.63;5000917;28;20961;-78
2021/04/12 12:43:30;;;;;;;4.07;3.10;;;;;;;5.80;62.42;152851.66;4992062;28;20441;-77
2021/04/12 12:46:08;;;;;;;3.60;2.93;;;;;;;5.77;66.18;152843.94;5000592;28;20495;-77
2021/04/12 12:48:48;;;;;;;4.90;3.03;;;;;;;5.87;70.16;152868.50;5004141;28;21145;-77
2021/04/12 12:51:27;;;;;;;6.10;3.47;;;;;;;5.91;67.26;152880.09;5009210;28;20452;-77
2021/04/12 12:54:07;;;;;;;3.30;3.00;;;;;;;5.93;66.90;152884.00;5006969;28;20827;-78
2021/04/12 12:56:44;;;;;;;7.23;2.70;;;;;;;5.93;64.66;152884.00;5002884;28;20449;-78
2021/04/12 12:59:21;;;;;;;3.60;2.87;;;;;;;5.99;63.89;152900.75;5012600;28;21169;-78
2021/04/12 13:01:58;;;;;;;3.87;2.63;;;;;;;6.13;64.04;152936.88;5007832;28;20452;-78
2021/04/12 13:04:33;;;;;;;3.80;2.83;;;;;;;6.25;64.63;152966.53;5009310;28;20452;-77
2021/04/12 13:07:14;;;;;;;2.90;2.70;;;;;;;6.38;63.89;152998.81;5024869;28;20432;-78
2021/04/12 13:09:55;;;;;;;2.83;2.20;;;;;;;6.43;62.46;153011.72;5025017;28;20786;-77
2021/04/12 13:12:33;;;;;;;4.27;2.70;;;;;;;6.51;66.05;153032.38;5007085;28;20454;-78
2021/04/12 13:15:14;;;;;;;3.20;2.90;;;;;;;6.61;65.98;153059.47;5003577;28;20547;-78
2021/04/12 13:17:50;;;;;;;3.00;2.70;;;;;;;6.82;61.10;153112.38;5003145;28;20449;-78
2021/04/12 13:20:32;;;;;;;3.23;2.67;;;;;;;6.91;62.59;153135.59;5026127;28;20445;-77
2021/04/12 13:23:14;;;;;;;3.97;3.53;;;;;;;6.91;61.43;153135.59;5019174;28;20448;-77
2021/04/12 13:25:51;;;;;;;3.00;2.70;;;;;;;6.90;62.99;153133.03;5024483;28;20444;-78